createdAt,value
2022-10-20T00:01:00.791Z,11.90
2022-10-20T00:03:29.710Z,11.90
2022-10-20T00:06:07.850Z,11.90
2022-10-20T00:08:35.915Z,11.90
2022-10-20T00:11:03.928Z,11.90
2022-10-20T00:13:33.386Z,11.90
2022-10-20T00:16:01.653Z,11.90
2022-10-20T00:18:29.926Z,11.90
2022-10-20T00:20:57.863Z,11.90
2022-10-20T00:23:25.850Z,11.90
2022-10-20T00:26:02.810Z,11.90
2022-10-20T00:28:30.910Z,11.90
2022-10-20T00:31:00.215Z,11.90
2022-10-20T00:33:28.538Z,11.90
2022-10-20T00:35:56.465Z,11.90
2022-10-20T00:38:24.376Z,11.90
2022-10-20T00:40:52.781Z,11.90
2022-10-20T00:43:20.933Z,11.90
2022-10-20T00:45:55.055Z,11.90
2022-10-20T00:48:29.137Z,11.90
2022-10-20T00:50:58.636Z,11.90
2022-10-20T00:53:30.357Z,11.90
2022-10-20T00:55:59.324Z,11.90
2022-10-20T00:58:28.343Z,11.90
2022-10-20T01:00:59.495Z,11.90
2022-10-20T01:03:33.030Z,11.80
2022-10-20T01:06:00.942Z,11.80
2022-10-20T01:08:28.883Z,11.80
2022-10-20T01:11:07.836Z,11.80
2022-10-20T01:13:45.056Z,11.80
2022-10-20T01:16:20.064Z,11.80
2022-10-20T01:18:55.932Z,11.90
2022-10-20T01:21:48.748Z,11.90
2022-10-20T01:24:33.357Z,11.80
2022-10-20T01:27:31.472Z,11.90
2022-10-20T01:30:07.023Z,11.90
2022-10-20T01:32:48.577Z,11.90
2022-10-20T01:35:24.244Z,11.80
2022-10-20T01:37:58.477Z,11.80
2022-10-20T01:40:31.127Z,11.80
2022-10-20T01:43:03.915Z,11.90
2022-10-20T01:45:34.555Z,11.90
2022-10-20T01:48:06.372Z,11.90
2022-10-20T01:50:35.551Z,11.90
2022-10-20T01:53:03.962Z,11.80
2022-10-20T01:55:32.324Z,11.80
2022-10-20T01:58:25.305Z,11.80
2022-10-20T02:01:00.302Z,11.80
2022-10-20T02:03:37.718Z,11.80
2022-10-20T02:06:25.688Z,11.80
2022-10-20T02:08:56.695Z,11.80
2022-10-20T02:11:29.014Z,11.80
2022-10-20T02:13:59.478Z,11.80
2022-10-20T02:16:30.662Z,11.80
2022-10-20T02:19:00.301Z,11.80
2022-10-20T02:21:28.777Z,11.80
2022-10-20T02:24:00.416Z,11.80
2022-10-20T02:26:30.677Z,11.80
2022-10-20T02:29:10.402Z,11.80
2022-10-20T02:31:38.437Z,11.70
2022-10-20T02:34:06.482Z,11.80
2022-10-20T02:36:39.697Z,11.70
2022-10-20T02:39:08.156Z,11.70
2022-10-20T02:41:36.626Z,11.70
2022-10-20T02:44:06.193Z,11.70
2022-10-20T02:46:34.086Z,11.70
2022-10-20T02:49:01.973Z,11.70
2022-10-20T02:51:29.946Z,11.80
2022-10-20T02:53:57.867Z,11.70
2022-10-20T02:56:28.868Z,11.70
2022-10-20T02:58:58.921Z,11.70
2022-10-20T03:01:28.343Z,11.70
2022-10-20T03:03:59.600Z,11.70
2022-10-20T03:06:27.675Z,11.60
2022-10-20T03:08:55.832Z,11.60
2022-10-20T03:11:24.021Z,11.60
2022-10-20T03:13:51.931Z,11.60
2022-10-20T03:16:19.856Z,11.60
2022-10-20T03:18:49.179Z,11.60
2022-10-20T03:21:17.173Z,11.60
2022-10-20T03:23:45.082Z,11.60
2022-10-20T03:26:13.505Z,11.60
2022-10-20T03:28:41.907Z,11.60
2022-10-20T03:31:10.143Z,11.60
2022-10-20T03:33:38.155Z,11.60
2022-10-20T03:36:08.027Z,11.60
2022-10-20T03:38:35.999Z,11.50
2022-10-20T03:41:03.977Z,11.60
2022-10-20T03:43:31.879Z,11.50
2022-10-20T03:46:04.368Z,11.50
2022-10-20T03:48:32.602Z,11.50
2022-10-20T03:51:01.035Z,11.50
2022-10-20T03:53:30.519Z,11.50
2022-10-20T03:55:58.649Z,11.50
2022-10-20T03:58:26.595Z,11.50
2022-10-20T04:00:55.472Z,11.50
2022-10-20T04:03:23.359Z,11.50
2022-10-20T04:05:51.331Z,11.50
2022-10-20T04:08:19.255Z,11.50
2022-10-20T04:10:48.529Z,11.50
2022-10-20T04:13:16.644Z,11.50
2022-10-20T04:15:44.594Z,11.40
2022-10-20T04:18:12.499Z,11.50
2022-10-20T04:20:43.576Z,11.50
2022-10-20T04:23:12.950Z,11.50
2022-10-20T04:25:45.366Z,11.40
2022-10-20T04:28:15.103Z,11.50
2022-10-20T04:30:43.773Z,11.40
2022-10-20T04:33:12.511Z,11.40
2022-10-20T04:35:40.982Z,11.40
2022-10-20T04:38:09.395Z,11.40
2022-10-20T04:40:37.299Z,11.40
2022-10-20T04:43:05.191Z,11.50
2022-10-20T04:45:34.523Z,11.40
2022-10-20T04:48:02.410Z,11.40
2022-10-20T04:50:30.309Z,11.40
2022-10-20T04:53:08.377Z,11.40
2022-10-20T04:55:36.412Z,11.30
2022-10-20T04:58:04.416Z,11.30
2022-10-20T05:00:33.785Z,11.30
2022-10-20T05:03:01.709Z,11.20
2022-10-20T05:05:29.656Z,11.30
2022-10-20T05:07:57.555Z,11.30
2022-10-20T05:10:25.457Z,11.40
2022-10-20T05:12:53.388Z,11.30
2022-10-20T05:15:21.435Z,11.40
2022-10-20T05:17:50.748Z,11.50
2022-10-20T05:20:18.864Z,11.40
2022-10-20T05:22:46.820Z,11.40
2022-10-20T05:28:02.694Z,11.40
2022-10-20T05:30:30.628Z,11.40
2022-10-20T05:32:59.961Z,11.30
2022-10-20T05:35:29.458Z,11.40
2022-10-20T05:37:58.131Z,11.30
2022-10-20T05:40:26.145Z,11.30
2022-10-20T05:42:54.067Z,11.20
2022-10-20T05:45:21.992Z,11.20
2022-10-20T05:47:49.910Z,11.20
2022-10-20T05:50:19.345Z,11.10
2022-10-20T05:52:47.282Z,11.00
2022-10-20T05:55:15.208Z,11.20
2022-10-20T05:57:43.180Z,11.00
2022-10-20T06:00:12.507Z,10.90
2022-10-20T06:02:40.411Z,10.90
2022-10-20T06:05:08.757Z,11.00
2022-10-20T06:07:38.066Z,11.00
2022-10-20T06:10:06.660Z,11.00
2022-10-20T06:12:36.991Z,11.00
2022-10-20T06:15:05.711Z,11.00
2022-10-20T06:17:33.696Z,11.00
2022-10-20T06:20:01.616Z,11.10
2022-10-20T06:22:29.543Z,11.10
2022-10-20T06:24:58.850Z,11.10
2022-10-20T06:27:26.826Z,11.10
2022-10-20T06:29:54.777Z,11.10
2022-10-20T06:32:22.758Z,11.20
2022-10-20T06:34:50.731Z,11.20
2022-10-20T06:37:18.657Z,11.20
2022-10-20T06:39:46.615Z,11.20
2022-10-20T06:42:15.908Z,11.20
2022-10-20T06:44:46.557Z,11.20
2022-10-20T06:47:14.536Z,11.20
2022-10-20T06:49:42.474Z,11.20
2022-10-20T06:54:44.562Z,11.20
2022-10-20T06:57:12.481Z,11.30
2022-10-20T06:59:41.709Z,11.30
2022-10-20T07:02:11.785Z,11.30
2022-10-20T07:04:39.724Z,11.30
2022-10-20T07:07:07.662Z,11.30
2022-10-20T07:09:35.586Z,11.40
2022-10-20T07:12:03.516Z,11.40
2022-10-20T07:14:32.467Z,11.50
2022-10-20T07:17:01.998Z,11.60
2022-10-20T07:19:29.988Z,11.60
2022-10-20T07:21:57.912Z,11.80
2022-10-20T07:24:25.967Z,11.90
2022-10-20T07:26:53.916Z,12.00
2022-10-20T07:29:21.876Z,12.10
2022-10-20T07:31:50.043Z,12.20
2022-10-20T07:34:26.444Z,12.20
2022-10-20T07:36:56.193Z,12.20
2022-10-20T07:39:24.565Z,12.20
2022-10-20T07:41:52.509Z,12.20
2022-10-20T07:44:20.467Z,12.20
2022-10-20T07:46:48.547Z,12.20
2022-10-20T07:49:42.943Z,12.30
2022-10-20T07:52:06.194Z,12.40
2022-10-20T07:54:34.271Z,12.50
2022-10-20T07:57:02.162Z,12.50
2022-10-20T07:59:30.172Z,12.60
2022-10-20T18:56:59.256Z,12.70
2022-10-20T18:59:27.645Z,13.90
2022-10-20T19:01:55.771Z,13.90
2022-10-20T19:04:23.666Z,13.90
2022-10-20T19:06:53.202Z,13.90
2022-10-20T19:09:22.616Z,14.00
2022-10-20T19:11:51.483Z,14.00
2022-10-20T19:14:19.610Z,14.10
2022-10-20T19:16:48.722Z,14.10
2022-10-20T19:19:19.179Z,14.10
2022-10-20T19:21:47.400Z,14.10
2022-10-20T19:24:19.330Z,14.10
2022-10-20T19:26:57.158Z,14.10
2022-10-20T19:29:36.768Z,14.20
2022-10-20T19:32:06.016Z,14.20
2022-10-20T19:34:36.540Z,14.10
2022-10-20T19:37:04.947Z,14.20
2022-10-20T19:39:37.165Z,14.30
2022-10-20T19:42:06.601Z,14.20
2022-10-20T19:44:35.346Z,14.30
